Time;durP1;ratioP1;P1;durP2;ratioP2;P2;SDS_P1;SDS_P2;PMS_P1;PMS_P2;Temp;Humidity;BMP_temperature;BMP_pressure;BME280_temperature;BME280_humidity;BME280_pressure;Samples;Min_cycle;Max_cycle;Signal;HPM_P1;HPM_P2
2022/02/05 00:00:54;;;;;;;7.33;3.93;;;4.90;99.90;;;;;;5072977;28;20844;-64
2022/02/05 00:03:27;;;;;;;9.07;4.17;;;5.00;99.90;;;;;;5073159;28;20559;-63
2022/02/05 00:05:57;;;;;;;7.50;4.13;;;5.00;99.90;;;;;;5073222;28;20524;-63
2022/02/05 00:08:41;;;;;;;4.43;3.90;;;4.90;99.90;;;;;;5073158;28;20440;-63
2022/02/05 00:11:26;;;;;;;13.43;4.00;;;4.90;99.90;;;;;;5073061;28;20486;-63
2022/02/05 00:20:22;;;;;;;9.40;3.20;;;4.90;99.90;;;;;;5090938;28;20509;-64
2022/02/05 00:39:53;;;;;;;12.30;4.70;;;4.80;99.90;;;;;;5090397;28;20558;-64
2022/02/05 00:42:30;;;;;;;7.80;3.80;;;4.80;99.90;;;;;;5090499;28;20482;-64
2022/02/05 00:44:57;;;;;;;8.80;3.90;;;4.80;99.90;;;;;;5090558;28;20477;-64
2022/02/05 00:47:24;;;;;;;8.13;3.63;;;4.80;99.90;;;;;;5090467;28;20447;-64
2022/02/05 00:49:57;;;;;;;10.80;3.13;;;4.90;99.90;;;;;;5090461;28;20476;-64
2022/02/05 00:52:25;;;;;;;12.00;4.13;;;4.90;99.90;;;;;;5090086;28;20515;-64
2022/02/05 00:55:01;;;;;;;11.33;4.57;;;4.80;99.90;;;;;;5090125;28;20476;-64
2022/02/05 00:57:46;;;;;;;9.23;4.60;;;4.90;99.90;;;;;;5090330;28;20423;-64
2022/02/05 01:00:18;;;;;;;6.50;3.80;;;4.90;99.90;;;;;;5090245;28;20458;-64
2022/02/05 01:02:45;;;;;;;7.47;3.63;;;4.90;99.90;;;;;;5090075;28;20471;-64
2022/02/05 01:05:13;;;;;;;11.40;4.33;;;4.90;99.90;;;;;;5090117;28;20444;-64
2022/02/05 01:07:41;;;;;;;6.10;3.40;;;5.00;99.90;;;;;;5089757;28;20459;-64
2022/02/05 01:10:09;;;;;;;6.80;3.37;;;5.00;99.90;;;;;;5090044;28;20444;-64
2022/02/05 01:12:39;;;;;;;8.50;4.50;;;4.90;99.90;;;;;;5089883;28;20467;-64
2022/02/05 01:15:07;;;;;;;7.50;3.57;;;4.90;99.90;;;;;;5089689;28;20518;-64
2022/02/05 01:17:39;;;;;;;8.63;4.00;;;5.00;99.90;;;;;;5089814;28;20448;-64
2022/02/05 01:20:39;;;;;;;9.73;3.77;;;4.90;99.90;;;;;;5089888;28;20482;-64
2022/02/05 01:23:11;;;;;;;9.97;3.33;;;4.90;99.90;;;;;;5089745;28;20485;-64
2022/02/05 01:25:43;;;;;;;5.83;3.20;;;4.90;99.90;;;;;;5089798;28;20462;-64
2022/02/05 01:28:14;;;;;;;7.67;3.27;;;4.90;99.90;;;;;;5076950;28;20426;-64
2022/02/05 01:30:44;;;;;;;6.47;3.83;;;4.90;99.90;;;;;;5075844;28;20904;-64
2022/02/05 01:33:28;;;;;;;11.53;3.30;;;4.90;99.90;;;;;;5076086;28;20499;-64
2022/02/05 01:36:12;;;;;;;8.40;3.60;;;4.90;99.90;;;;;;5075929;28;20460;-64
2022/02/05 01:50:05;;;;;;;6.00;2.60;;;4.90;99.90;;;;;;5075881;28;20400;-64
2022/02/05 01:52:39;;;;;;;5.80;2.67;;;5.00;99.90;;;;;;5075705;28;20556;-64
2022/02/05 01:55:16;;;;;;;8.60;2.67;;;4.90;99.90;;;;;;5075650;28;20474;-64
2022/02/05 01:57:50;;;;;;;9.10;3.10;;;5.00;99.90;;;;;;5075575;28;20440;-64
2022/02/05 02:05:56;;;;;;;12.37;3.80;;;4.90;99.90;;;;;;5075553;28;20442;-64
2022/02/05 02:11:34;;;;;;;8.13;3.20;;;4.90;99.90;;;;;;5036632;28;20991;-65
2022/02/05 02:14:26;;;;;;;6.47;2.77;;;4.80;99.90;;;;;;5075336;28;20468;-64
2022/02/05 02:22:37;;;;;;;8.70;3.30;;;4.80;99.90;;;;;;5072213;28;20532;-64
2022/02/05 02:25:14;;;;;;;10.70;4.00;;;4.90;99.90;;;;;;5075164;28;20461;-64
2022/02/05 02:27:48;;;;;;;6.07;2.80;;;4.80;99.90;;;;;;5075128;28;20436;-64
2022/02/05 02:30:18;;;;;;;7.47;3.00;;;4.80;99.90;;;;;;5075086;28;20429;-64
2022/02/05 02:32:49;;;;;;;7.37;3.20;;;4.80;99.90;;;;;;5075176;28;20468;-64
2022/02/05 02:35:20;;;;;;;8.60;2.70;;;4.90;99.90;;;;;;5074885;28;20522;-64
2022/02/05 02:37:53;;;;;;;8.27;2.50;;;4.80;99.90;;;;;;5074571;28;20515;-64
2022/02/05 02:40:29;;;;;;;11.03;2.87;;;4.80;99.90;;;;;;5074378;28;20433;-64
2022/02/05 02:43:02;;;;;;;8.73;2.67;;;4.80;99.90;;;;;;5074745;28;20468;-64
2022/02/05 02:45:29;;;;;;;9.73;3.90;;;4.80;99.90;;;;;;5074757;28;20429;-64
2022/02/05 02:47:56;;;;;;;10.10;2.30;;;4.80;99.90;;;;;;5074643;28;20449;-64
2022/02/05 02:50:33;;;;;;;6.87;2.80;;;4.80;99.90;;;;;;5074679;28;20518;-64
2022/02/05 02:58:33;;;;;;;9.07;2.60;;;4.80;99.90;;;;;;5074485;28;20405;-64
2022/02/05 03:01:01;;;;;;;6.63;2.57;;;4.90;99.90;;;;;;5074402;28;20540;-64
2022/02/05 03:03:29;;;;;;;7.27;3.00;;;4.80;99.90;;;;;;5074289;28;20475;-64
2022/02/05 03:05:56;;;;;;;9.63;2.40;;;4.70;99.90;;;;;;5074308;28;20444;-64
2022/02/05 03:08:24;;;;;;;7.90;2.77;;;4.80;99.90;;;;;;5074006;28;20954;-64
2022/02/05 03:10:50;;;;;;;8.90;2.70;;;4.80;99.90;;;;;;5074283;28;20467;-64
2022/02/05 03:13:17;;;;;;;5.57;2.33;;;4.80;99.90;;;;;;5073759;28;20471;-64
2022/02/05 03:15:44;;;;;;;7.03;2.70;;;4.80;99.90;;;;;;5073733;28;20497;-64
2022/02/05 03:18:14;;;;;;;6.83;2.23;;;4.80;99.90;;;;;;5074180;28;20452;-64
2022/02/05 03:20:41;;;;;;;12.20;3.43;;;4.70;99.90;;;;;;5074137;28;20437;-64
2022/02/05 03:23:08;;;;;;;7.80;2.43;;;4.70;99.90;;;;;;5073882;28;20465;-64
2022/02/05 03:25:37;;;;;;;8.90;2.87;;;4.80;99.90;;;;;;5073921;28;20445;-64
2022/02/05 03:28:04;;;;;;;7.80;3.70;;;4.80;99.90;;;;;;5073920;28;20886;-64
2022/02/05 03:30:31;;;;;;;8.57;2.50;;;4.70;99.90;;;;;;5073871;28;20441;-64
2022/02/05 03:32:59;;;;;;;7.00;4.90;;;4.70;99.90;;;;;;5073783;28;20468;-64
2022/02/05 03:35:26;;;;;;;7.93;2.43;;;4.70;99.90;;;;;;5073501;28;20445;-64
2022/02/05 03:37:52;;;;;;;10.40;2.27;;;4.70;99.90;;;;;;5073895;28;20433;-64
2022/02/05 03:40:19;;;;;;;5.47;2.80;;;4.70;99.90;;;;;;5073994;28;20449;-64
2022/02/05 03:42:48;;;;;;;10.43;3.10;;;4.60;99.90;;;;;;5073827;28;20465;-64
2022/02/05 03:45:15;;;;;;;10.13;2.83;;;4.60;99.90;;;;;;5073777;28;20445;-64
2022/02/05 03:47:42;;;;;;;5.80;2.87;;;4.60;99.90;;;;;;5073703;28;20445;-64
2022/02/05 03:50:09;;;;;;;5.57;2.13;;;4.60;99.90;;;;;;5073395;28;20449;-64
2022/02/05 03:52:38;;;;;;;12.90;2.50;;;4.60;99.90;;;;;;5073495;28;20469;-64
2022/02/05 03:55:05;;;;;;;11.40;2.37;;;4.50;99.90;;;;;;5073285;28;20487;-64
2022/02/05 03:57:32;;;;;;;12.10;3.23;;;4.50;99.90;;;;;;5073132;28;20522;-64
2022/02/05 04:00:02;;;;;;;6.67;2.50;;;4.50;99.90;;;;;;5073481;28;20453;-64
2022/02/05 04:02:29;;;;;;;5.50;2.10;;;4.60;99.90;;;;;;5073436;28;20468;-64
2022/02/05 04:04:56;;;;;;;5.90;2.57;;;4.60;99.90;;;;;;5073437;28;20444;-64
2022/02/05 04:07:24;;;;;;;4.53;2.80;;;4.60;99.90;;;;;;5073419;28;20444;-64
2022/02/05 04:09:57;;;;;;;7.80;2.67;;;4.50;99.90;;;;;;5074293;28;20436;-64
2022/02/05 04:17:54;;;;;;;8.30;2.87;;;4.50;99.90;;;;;;5073185;28;20910;-64
2022/02/05 04:20:20;;;;;;;7.70;2.47;;;4.60;99.90;;;;;;5073307;28;20445;-64
2022/02/05 04:22:48;;;;;;;10.00;3.00;;;4.60;99.90;;;;;;5073251;28;20468;-64
2022/02/05 04:25:15;;;;;;;8.00;2.90;;;4.50;99.90;;;;;;5073219;28;20449;-64
2022/02/05 04:27:41;;;;;;;5.70;2.47;;;4.50;99.90;;;;;;5073256;28;20448;-64
2022/02/05 04:30:10;;;;;;;8.33;2.23;;;4.50;99.90;;;;;;5073335;28;20412;-64
2022/02/05 04:32:37;;;;;;;8.83;2.63;;;4.50;99.90;;;;;;5073102;28;20465;-64
2022/02/05 04:35:05;;;;;;;5.20;2.70;;;4.40;99.90;;;;;;5073173;28;20550;-64
2022/02/05 04:37:32;;;;;;;9.40;3.00;;;4.50;99.90;;;;;;5073090;28;20476;-64
2022/02/05 04:40:09;;;;;;;5.30;2.73;;;4.40;99.90;;;;;;5073113;28;20892;-64
2022/02/05 04:42:45;;;;;;;6.77;2.80;;;4.50;99.90;;;;;;5073030;28;20464;-64
2022/02/05 04:45:37;;;;;;;7.47;3.60;;;4.40;99.90;;;;;;5072828;28;20946;-64
2022/02/05 04:51:11;;;;;;;10.40;3.00;;;4.30;99.90;;;;;;5070411;28;20440;-64
2022/02/05 04:53:53;;;;;;;7.10;3.00;;;4.40;99.90;;;;;;5072984;28;20437;-64
2022/02/05 04:56:39;;;;;;;6.60;3.03;;;4.30;99.90;;;;;;5072578;28;20984;-64
2022/02/05 05:04:38;;;;;;;7.30;3.40;;;4.30;99.90;;;;;;5076391;28;20521;-64
2022/02/05 05:10:10;;;;;;;12.10;3.57;;;4.30;99.90;;;;;;5034328;28;21027;-64
2022/02/05 05:12:51;;;;;;;12.23;4.03;;;4.40;99.90;;;;;;5034192;28;20498;-64
2022/02/05 05:15:30;;;;;;;9.23;4.00;;;4.30;99.90;;;;;;5058280;28;20449;-64
2022/02/05 05:20:53;;;;;;;9.73;3.37;;;4.30;99.90;;;;;;5076464;28;20427;-64
2022/02/05 05:23:19;;;;;;;13.00;3.53;;;4.30;99.90;;;;;;5076228;28;20472;-64
2022/02/05 05:25:46;;;;;;;6.60;3.10;;;4.40;99.90;;;;;;5076237;28;20823;-64
2022/02/05 05:28:13;;;;;;;15.93;3.33;;;4.30;99.90;;;;;;5075912;28;20448;-64
2022/02/05 05:30:40;;;;;;;7.00;3.10;;;4.30;99.90;;;;;;5076183;28;20448;-64
2022/02/05 05:33:09;;;;;;;7.17;3.10;;;4.30;99.90;;;;;;5075901;28;20472;-64
2022/02/05 05:35:36;;;;;;;15.00;3.73;;;4.40;99.90;;;;;;5077312;28;20456;-64
2022/02/05 05:38:03;;;;;;;7.07;3.10;;;4.40;99.90;;;;;;5075949;28;20495;-64
2022/02/05 05:40:30;;;;;;;10.20;3.97;;;4.40;99.90;;;;;;5075724;28;20936;-64
2022/02/05 05:42:58;;;;;;;5.57;3.00;;;4.40;99.90;;;;;;5075691;28;20479;-64
2022/02/05 05:48:09;;;;;;;10.73;3.83;;;4.40;99.90;;;;;;5073607;28;20927;-64
2022/02/05 05:53:21;;;;;;;8.00;3.13;;;4.40;99.90;;;;;;5075492;28;20822;-64
2022/02/05 05:55:49;;;;;;;15.57;4.53;;;4.40;99.90;;;;;;5075720;28;20453;-63
2022/02/05 05:58:17;;;;;;;9.63;3.40;;;4.40;99.90;;;;;;5075823;28;20444;-63
2022/02/05 06:00:45;;;;;;;12.80;4.20;;;4.40;99.90;;;;;;5076136;28;20459;-64
2022/02/05 06:03:12;;;;;;;9.77;4.80;;;4.40;99.90;;;;;;5075272;28;20539;-64
2022/02/05 06:05:41;;;;;;;12.63;4.33;;;4.50;99.90;;;;;;5075123;28;21017;-64
2022/02/05 06:08:07;;;;;;;11.70;3.60;;;4.50;99.90;;;;;;5075387;28;20447;-63
2022/02/05 06:10:34;;;;;;;7.13;3.00;;;4.40;99.90;;;;;;5075254;28;20444;-63
2022/02/05 06:13:01;;;;;;;13.57;3.50;;;4.40;99.90;;;;;;5075580;28;20526;-69
2022/02/05 06:15:28;;;;;;;10.70;3.50;;;4.40;99.90;;;;;;5075052;28;20464;-64
2022/02/05 06:17:55;;;;;;;17.53;3.80;;;4.40;99.90;;;;;;5074905;28;20999;-64
2022/02/05 06:20:22;;;;;;;7.10;3.83;;;4.40;99.90;;;;;;5076033;28;20452;-69
2022/02/05 06:22:50;;;;;;;14.10;3.60;;;4.40;99.90;;;;;;5075665;28;20460;-69
2022/02/05 06:25:17;;;;;;;9.07;3.50;;;4.40;99.90;;;;;;5075291;28;20503;-64
2022/02/05 06:27:44;;;;;;;7.03;2.60;;;4.40;99.90;;;;;;5075749;28;20432;-69
2022/02/05 06:30:12;;;;;;;9.03;3.10;;;4.40;99.90;;;;;;5075185;28;20441;-69
2022/02/05 06:32:38;;;;;;;8.43;3.30;;;4.40;99.90;;;;;;5075333;28;20472;-69
2022/02/05 06:35:06;;;;;;;10.50;3.10;;;4.40;99.90;;;;;;5075164;28;20470;-69
2022/02/05 06:37:33;;;;;;;3.90;2.20;;;4.30;99.90;;;;;;5077532;28;20481;-68
2022/02/05 06:40:01;;;;;;;10.37;3.70;;;4.40;99.90;;;;;;5075609;28;20543;-64
2022/02/05 06:42:28;;;;;;;10.00;3.33;;;4.40;99.90;;;;;;5077902;28;20456;-69
2022/02/05 06:44:55;;;;;;;8.73;3.43;;;4.40;99.90;;;;;;5078076;28;20444;-63
2022/02/05 06:47:21;;;;;;;7.97;3.50;;;4.40;99.90;;;;;;5074757;28;20445;-63
2022/02/05 06:49:48;;;;;;;10.07;2.80;;;4.30;99.90;;;;;;5074369;28;20523;-63
2022/02/05 06:52:15;;;;;;;8.80;3.23;;;4.30;99.90;;;;;;5074638;28;20464;-63
2022/02/05 06:54:41;;;;;;;8.10;3.30;;;4.30;99.90;;;;;;5074662;28;20448;-63
2022/02/05 06:57:09;;;;;;;4.60;2.30;;;4.40;99.90;;;;;;5074525;28;20491;-63
2022/02/05 06:59:36;;;;;;;11.40;3.60;;;4.30;99.90;;;;;;5074445;28;20432;-64
2022/02/05 07:02:03;;;;;;;9.20;3.23;;;4.30;99.90;;;;;;5074468;28;20507;-65
2022/02/05 07:04:30;;;;;;;8.40;3.20;;;4.40;99.90;;;;;;5074698;28;20440;-64
2022/02/05 07:06:58;;;;;;;10.90;3.23;;;4.30;99.90;;;;;;5074384;28;20432;-64
2022/02/05 07:09:27;;;;;;;11.93;3.10;;;4.40;99.90;;;;;;5074376;28;20441;-64
2022/02/05 07:11:56;;;;;;;8.23;2.80;;;4.40;99.90;;;;;;5073800;28;20548;-64
2022/02/05 07:14:28;;;;;;;10.83;3.30;;;4.40;99.90;;;;;;5073850;28;20969;-64
2022/02/05 07:17:01;;;;;;;8.13;3.00;;;4.30;99.90;;;;;;5074155;28;20519;-64
2022/02/05 07:19:39;;;;;;;5.60;2.80;;;4.30;99.90;;;;;;5073837;28;20891;-64
2022/02/05 07:22:06;;;;;;;8.03;4.13;;;4.30;99.90;;;;;;5073995;28;20808;-64
2022/02/05 07:24:56;;;;;;;5.53;2.70;;;4.30;99.90;;;;;;5073537;28;20448;-64
2022/02/05 07:30:10;;;;;;;10.40;3.17;;;4.30;99.90;;;;;;5074074;28;20451;-64
2022/02/05 07:32:37;;;;;;;9.73;3.17;;;4.40;99.90;;;;;;5074020;28;20469;-64
2022/02/05 07:35:04;;;;;;;8.20;3.20;;;4.30;99.90;;;;;;5073883;28;20425;-64
2022/02/05 07:37:31;;;;;;;8.13;2.87;;;4.30;99.90;;;;;;5073407;28;20858;-64
2022/02/05 07:39:58;;;;;;;10.07;2.93;;;4.30;99.90;;;;;;5073760;28;20440;-64
2022/02/05 07:42:26;;;;;;;13.60;3.47;;;4.30;99.90;;;;;;5073422;28;20989;-64
2022/02/05 07:44:52;;;;;;;10.87;3.40;;;4.30;99.90;;;;;;5073673;28;20547;-64
2022/02/05 07:47:22;;;;;;;5.33;2.67;;;4.30;99.90;;;;;;5073348;28;20927;-64
2022/02/05 07:49:49;;;;;;;13.23;3.43;;;4.30;99.90;;;;;;5073706;28;20534;-64
2022/02/05 07:52:16;;;;;;;6.60;3.13;;;4.40;99.90;;;;;;5073526;28;20555;-64
2022/02/05 07:54:43;;;;;;;11.10;3.30;;;4.40;99.90;;;;;;5073575;28;20440;-64
2022/02/05 07:57:10;;;;;;;16.13;3.53;;;4.40;99.90;;;;;;5073145;28;20831;-63
2022/02/05 07:59:36;;;;;;;9.00;3.33;;;4.40;99.90;;;;;;5073204;28;20451;-67
2022/02/05 08:02:04;;;;;;;9.00;3.10;;;4.40;99.90;;;;;;5073405;28;20465;-67
2022/02/05 08:04:32;;;;;;;19.30;3.70;;;4.40;99.90;;;;;;5073431;28;20441;-67
2022/02/05 08:07:01;;;;;;;11.10;3.93;;;4.40;99.90;;;;;;5073062;28;20472;-67
2022/02/05 08:09:40;;;;;;;32.53;5.97;;;4.40;99.90;;;;;;5073340;28;20502;-67
2022/02/05 08:12:11;;;;;;;13.93;3.80;;;4.30;99.90;;;;;;5073035;28;21004;-67
2022/02/05 08:14:42;;;;;;;16.97;2.90;;;4.40;99.90;;;;;;5073152;28;20441;-67
2022/02/05 08:17:17;;;;;;;8.67;2.70;;;4.50;99.90;;;;;;5073332;28;20476;-68
2022/02/05 08:19:46;;;;;;;14.20;3.70;;;4.50;99.90;;;;;;5073281;28;20428;-67
2022/02/05 08:22:13;;;;;;;15.50;3.93;;;4.60;99.90;;;;;;5073259;28;20522;-67
2022/02/05 08:24:40;;;;;;;14.03;3.70;;;4.50;99.90;;;;;;5073246;28;20453;-67
2022/02/05 08:27:09;;;;;;;8.50;3.90;;;4.60;99.90;;;;;;5073026;28;20445;-67
2022/02/05 08:29:38;;;;;;;22.90;5.30;;;4.60;99.90;;;;;;5073138;28;20445;-67
2022/02/05 08:32:06;;;;;;;10.20;3.73;;;4.60;99.90;;;;;;5073054;28;21014;-68
2022/02/05 08:34:33;;;;;;;12.57;4.00;;;4.70;99.90;;;;;;5072765;28;20954;-67
2022/02/05 08:37:01;;;;;;;7.57;3.07;;;4.90;99.90;;;;;;5074215;28;20484;-67
2022/02/05 08:39:28;;;;;;;14.03;4.33;;;5.00;99.90;;;;;;5077576;28;20463;-67
2022/02/05 08:41:55;;;;;;;14.67;3.77;;;5.00;99.90;;;;;;5076689;28;21010;-67
2022/02/05 08:44:22;;;;;;;16.90;4.47;;;5.10;99.90;;;;;;5077016;28;20436;-67
2022/02/05 08:46:48;;;;;;;20.30;3.83;;;5.00;99.90;;;;;;5076882;28;20444;-67
2022/02/05 08:49:16;;;;;;;24.47;6.67;;;5.00;99.90;;;;;;5076967;28;20849;-67
2022/02/05 08:51:43;;;;;;;94.43;12.50;;;5.00;99.90;;;;;;5076759;28;20465;-67
2022/02/05 08:54:11;;;;;;;27.37;4.47;;;5.00;99.90;;;;;;5076806;28;20456;-68
2022/02/05 08:56:37;;;;;;;53.27;5.23;;;5.00;99.90;;;;;;5076355;28;20961;-67
2022/02/05 08:59:04;;;;;;;12.53;4.83;;;5.00;99.90;;;;;;5076343;28;20468;-67
2022/02/05 09:01:44;;;;;;;292.57;29.07;;;5.10;99.90;;;;;;5076220;28;21122;-68
2022/02/05 09:04:19;;;;;;;26.00;4.20;;;5.10;99.90;;;;;;5076598;28;20467;-67
2022/02/05 09:06:47;;;;;;;18.23;3.73;;;5.20;99.90;;;;;;5076639;28;20483;-67
2022/02/05 09:09:27;;;;;;;50.17;6.90;;;5.20;99.90;;;;;;5076481;28;20445;-67
2022/02/05 09:12:02;;;;;;;14.43;4.57;;;5.30;99.90;;;;;;5076124;28;20472;-67
2022/02/05 09:14:33;;;;;;;13.90;3.80;;;5.40;99.90;;;;;;5075933;28;20424;-67
2022/02/05 09:17:00;;;;;;;12.20;4.70;;;5.50;99.90;;;;;;5075975;28;20896;-66
2022/02/05 09:19:28;;;;;;;9.13;3.97;;;5.50;99.90;;;;;;5076377;28;20453;-74
2022/02/05 09:21:55;;;;;;;18.47;4.20;;;5.50;99.90;;;;;;5076755;28;20476;-72
2022/02/05 09:24:24;;;;;;;17.80;4.50;;;5.50;99.90;;;;;;5076311;28;20455;-72
2022/02/05 09:26:58;;;;;;;16.53;4.43;;;5.60;99.90;;;;;;5076368;28;20449;-73
2022/02/05 09:29:25;;;;;;;10.80;4.20;;;5.60;99.90;;;;;;5076256;28;20464;-68
2022/02/05 09:31:52;;;;;;;9.90;4.10;;;5.70;99.90;;;;;;5076127;28;20817;-71
2022/02/05 09:34:20;;;;;;;19.27;4.47;;;5.70;99.90;;;;;;5076048;28;20451;-68
2022/02/05 09:36:47;;;;;;;10.30;3.60;;;5.70;99.90;;;;;;5075755;28;21043;-68
2022/02/05 09:39:14;;;;;;;14.67;4.20;;;5.70;99.90;;;;;;5075921;28;20476;-69
2022/02/05 09:41:44;;;;;;;16.83;4.87;;;5.80;99.90;;;;;;5075976;28;20526;-68
2022/02/05 09:44:11;;;;;;;14.07;4.67;;;5.90;99.90;;;;;;5076011;28;20445;-68
2022/02/05 09:46:38;;;;;;;12.47;4.23;;;5.90;99.90;;;;;;5075922;28;20445;-69
2022/02/05 09:49:06;;;;;;;7.30;4.00;;;6.00;99.90;;;;;;5075442;28;20448;-69
2022/02/05 09:51:37;;;;;;;13.87;3.87;;;6.20;99.90;;;;;;5075737;28;20806;-69
2022/02/05 09:54:05;;;;;;;13.93;4.43;;;6.30;99.90;;;;;;5075519;28;20433;-69
2022/02/05 09:56:34;;;;;;;12.70;4.40;;;6.40;99.90;;;;;;5075454;28;20961;-69
2022/02/05 09:59:03;;;;;;;15.47;4.43;;;6.30;99.90;;;;;;5075765;28;20480;-69
2022/02/05 10:01:33;;;;;;;11.50;4.30;;;6.40;99.90;;;;;;5075329;28;20441;-69
2022/02/05 10:04:00;;;;;;;7.03;3.73;;;6.50;99.90;;;;;;5075639;28;20444;-69
2022/02/05 10:06:30;;;;;;;12.23;3.53;;;6.50;99.90;;;;;;5075820;28;20444;-68
2022/02/05 10:09:00;;;;;;;12.73;4.20;;;6.60;99.90;;;;;;5075282;28;20794;-69
2022/02/05 10:11:30;;;;;;;15.83;3.73;;;6.70;99.90;;;;;;5075501;28;20447;-69
2022/02/05 10:14:11;;;;;;;14.63;3.60;;;6.80;99.90;;;;;;5075477;28;20433;-69
2022/02/05 10:16:39;;;;;;;14.03;3.87;;;6.80;99.90;;;;;;5075222;28;20468;-69
2022/02/05 10:19:06;;;;;;;15.37;4.00;;;6.80;99.90;;;;;;5075349;28;20488;-68
2022/02/05 10:21:32;;;;;;;25.33;5.87;;;6.80;99.90;;;;;;5075310;28;20464;-68
2022/02/05 10:24:01;;;;;;;13.33;4.57;;;7.00;99.90;;;;;;5075346;28;20451;-68
2022/02/05 10:26:36;;;;;;;49.17;5.60;;;7.10;99.90;;;;;;5075175;28;20452;-68
2022/02/05 10:29:07;;;;;;;107.73;11.13;;;7.30;99.90;;;;;;5075209;28;20478;-68
2022/02/05 10:32:07;;;;;;;39.03;6.37;;;7.50;99.90;;;;;;5074820;28;20941;-66
2022/02/05 10:34:53;;;;;;;6.03;3.67;;;7.60;99.90;;;;;;5075457;28;20520;-67
2022/02/05 10:37:24;;;;;;;15.00;4.03;;;7.60;99.90;;;;;;5075382;28;20447;-68
2022/02/05 10:45:19;;;;;;;15.57;4.30;;;7.90;99.90;;;;;;5075126;28;20871;-67
2022/02/05 10:47:53;;;;;;;15.60;4.50;;;8.00;99.90;;;;;;5074818;28;20494;-66
2022/02/05 10:50:23;;;;;;;15.20;4.20;;;8.00;99.90;;;;;;5074803;28;20398;-66
2022/02/05 10:52:52;;;;;;;17.27;4.80;;;8.00;99.90;;;;;;5074616;28;20460;-66
2022/02/05 10:55:26;;;;;;;11.30;3.83;;;8.10;99.90;;;;;;5074662;28;20499;-67
2022/02/05 10:58:14;;;;;;;9.87;4.27;;;8.20;99.90;;;;;;5074496;28;20472;-67
2022/02/05 11:06:10;;;;;;;11.47;4.00;;;8.20;99.10;;;;;;5074048;28;20421;-70
2022/02/05 11:08:38;;;;;;;10.67;4.33;;;7.90;99.30;;;;;;5074188;28;20437;-67
2022/02/05 11:14:08;;;;;;;9.93;4.37;;;7.60;99.90;;;;;;5074041;28;20424;-74
2022/02/05 11:19:21;;;;;;;8.10;3.87;;;7.40;99.90;;;;;;5074005;28;20819;-67
2022/02/05 11:21:48;;;;;;;6.70;3.57;;;7.40;99.90;;;;;;5073581;28;21040;-66
2022/02/05 11:24:15;;;;;;;10.97;4.47;;;7.60;99.90;;;;;;5073915;28;20456;-66
2022/02/05 11:26:43;;;;;;;10.77;3.73;;;7.80;99.90;;;;;;5073912;28;20452;-66
2022/02/05 11:29:27;;;;;;;8.90;3.77;;;8.00;99.90;;;;;;5073550;28;20981;-66
2022/02/05 11:31:56;;;;;;;7.70;3.73;;;8.30;99.30;;;;;;5073862;28;20548;-67
2022/02/05 11:34:30;;;;;;;11.33;3.80;;;8.70;99.30;;;;;;5073753;28;20453;-67
2022/02/05 11:37:04;;;;;;;11.20;4.10;;;9.10;97.40;;;;;;5073508;28;20435;-67
2022/02/05 11:39:44;;;;;;;12.47;4.57;;;9.40;96.50;;;;;;5073290;28;21033;-67
2022/02/05 11:42:28;;;;;;;8.00;3.90;;;9.50;95.10;;;;;;5073639;28;20496;-67
2022/02/05 11:44:57;;;;;;;6.70;3.07;;;9.60;95.20;;;;;;5073552;28;20444;-67
2022/02/05 11:47:32;;;;;;;10.83;4.10;;;9.70;93.80;;;;;;5073712;28;20816;-68
2022/02/05 11:50:34;;;;;;;6.73;3.50;;;9.70;94.40;;;;;;5073603;28;20436;-68
2022/02/05 11:53:08;;;;;;;10.00;3.90;;;9.50;94.10;;;;;;5073492;28;20468;-67
2022/02/05 11:55:38;;;;;;;5.73;3.10;;;9.40;94.60;;;;;;5073607;28;20486;-67
2022/02/05 11:58:07;;;;;;;8.17;3.33;;;9.30;93.80;;;;;;5073494;28;20469;-67
2022/02/05 12:00:36;;;;;;;8.97;3.73;;;9.40;93.60;;;;;;5073499;28;20455;-66
2022/02/05 12:03:27;;;;;;;7.90;4.03;;;9.50;93.70;;;;;;5073402;28;20464;-66
2022/02/05 12:06:01;;;;;;;11.17;3.30;;;9.90;93.20;;;;;;5073536;28;20437;-65
2022/02/05 12:08:29;;;;;;;4.07;2.93;;;10.20;91.00;;;;;;5073525;28;20781;-65
2022/02/05 12:10:58;;;;;;;6.00;3.27;;;10.40;91.00;;;;;;5073554;28;20436;-65
2022/02/05 12:13:28;;;;;;;9.43;3.37;;;10.30;89.30;;;;;;5072961;28;21006;-64
2022/02/05 12:16:19;;;;;;;4.77;3.03;;;10.00;91.00;;;;;;5073207;28;20468;-64
2022/02/05 12:18:57;;;;;;;7.57;3.23;;;9.80;91.60;;;;;;5073287;28;20516;-64
2022/02/05 12:21:30;;;;;;;7.87;2.83;;;9.90;91.90;;;;;;5073196;28;20798;-65
2022/02/05 12:26:57;;;;;;;10.63;4.30;;;10.00;90.00;;;;;;5072938;28;20760;-64
2022/02/05 12:29:29;;;;;;;9.10;2.50;;;10.30;89.40;;;;;;5073232;28;20436;-64
2022/02/05 12:31:57;;;;;;;10.50;3.20;;;10.60;89.10;;;;;;5073233;28;20464;-65
2022/02/05 12:34:24;;;;;;;6.53;2.47;;;10.80;84.50;;;;;;5072852;28;20440;-65
2022/02/05 12:36:54;;;;;;;5.80;2.83;;;11.00;80.40;;;;;;5073179;28;20845;-65
2022/02/05 12:39:25;;;;;;;6.23;2.87;;;11.20;81.90;;;;;;5073133;28;20469;-64
2022/02/05 12:41:55;;;;;;;8.47;2.60;;;11.30;79.10;;;;;;5073056;28;20488;-65
2022/02/05 12:44:23;;;;;;;5.77;2.23;;;11.40;77.30;;;;;;5073051;28;20455;-65
2022/02/05 12:46:54;;;;;;;6.70;2.90;;;11.40;74.70;;;;;;5073787;28;20787;-65
2022/02/05 12:49:25;;;;;;;10.20;2.43;;;11.20;72.50;;;;;;5073063;28;20432;-65
2022/02/05 12:51:56;;;;;;;18.00;4.80;;;11.20;76.00;;;;;;5072802;28;20977;-65
2022/02/05 12:54:26;;;;;;;6.90;2.37;;;11.20;73.10;;;;;;5073023;28;20436;-65
2022/02/05 12:56:54;;;;;;;9.87;3.80;;;11.20;72.70;;;;;;5072670;28;20425;-65
2022/02/05 12:59:27;;;;;;;5.17;2.43;;;11.40;72.20;;;;;;5072850;28;20847;-65
2022/02/05 13:01:55;;;;;;;9.40;2.33;;;11.20;72.10;;;;;;5072881;28;20471;-65
2022/02/05 13:04:24;;;;;;;9.20;2.33;;;11.20;71.50;;;;;;5072882;28;20448;-65
2022/02/05 13:07:04;;;;;;;6.53;2.40;;;11.40;70.50;;;;;;5072877;28;20445;-64
2022/02/05 13:09:34;;;;;;;6.50;2.53;;;11.80;69.60;;;;;;5072868;28;20428;-64
2022/02/05 13:12:03;;;;;;;5.37;2.47;;;12.30;68.90;;;;;;5072721;28;20479;-65
2022/02/05 13:14:38;;;;;;;5.67;2.70;;;12.70;65.50;;;;;;5072568;28;20807;-65
2022/02/05 13:17:08;;;;;;;6.10;2.40;;;12.80;63.90;;;;;;5072748;28;20429;-65
2022/02/05 13:19:54;;;;;;;6.23;2.33;;;12.80;62.30;;;;;;5072678;28;20471;-65
2022/02/05 13:28:09;;;;;;;7.40;2.77;;;12.70;61.50;;;;;;5076329;28;20765;-65
2022/02/05 13:33:45;;;;;;;7.00;2.27;;;12.40;63.70;;;;;;5075833;28;20809;-67
2022/02/05 13:36:16;;;;;;;6.20;2.20;;;12.00;64.90;;;;;;5075967;28;20490;-67
2022/02/05 13:39:09;;;;;;;7.23;2.40;;;11.70;66.30;;;;;;5075882;28;20460;-66
2022/02/05 13:41:43;;;;;;;9.63;2.57;;;11.50;66.10;;;;;;5075954;28;21030;-67
2022/02/05 13:44:14;;;;;;;5.90;2.20;;;11.20;67.00;;;;;;5075984;28;20440;-65
2022/02/05 13:46:41;;;;;;;8.67;2.57;;;11.10;67.80;;;;;;5075937;28;20526;-64
2022/02/05 13:49:15;;;;;;;8.47;2.70;;;11.20;68.80;;;;;;5075925;28;20448;-64
2022/02/05 13:51:42;;;;;;;9.10;2.70;;;11.40;68.60;;;;;;5075813;28;20521;-65
2022/02/05 13:54:11;;;;;;;6.80;3.13;;;11.60;67.20;;;;;;5075836;28;20449;-65
2022/02/05 13:56:38;;;;;;;4.30;1.83;;;11.70;65.00;;;;;;5075821;28;20437;-65
2022/02/05 13:59:06;;;;;;;7.70;3.00;;;11.90;64.60;;;;;;5075436;28;20993;-65
2022/02/05 14:01:33;;;;;;;9.40;2.37;;;12.00;64.70;;;;;;5075576;28;20447;-65
2022/02/05 14:04:12;;;;;;;9.27;2.27;;;11.90;62.70;;;;;;5075392;28;20436;-65
2022/02/05 14:06:51;;;;;;;10.70;2.73;;;11.60;63.00;;;;;;5075574;28;20441;-65
2022/02/05 14:09:25;;;;;;;5.13;2.00;;;11.20;65.80;;;;;;5075622;28;20425;-65
2022/02/05 14:11:52;;;;;;;7.23;1.63;;;10.80;64.90;;;;;;5075830;28;20477;-65
2022/02/05 14:14:27;;;;;;;7.50;1.63;;;10.40;64.40;;;;;;5075708;28;20452;-65
2022/02/05 14:16:54;;;;;;;6.47;2.07;;;10.00;67.30;;;;;;5075717;28;20425;-65
2022/02/05 14:19:22;;;;;;;7.50;1.93;;;10.10;68.20;;;;;;5075384;28;20990;-64
2022/02/05 14:21:51;;;;;;;3.73;1.90;;;9.90;67.20;;;;;;5075407;28;20468;-65
2022/02/05 14:24:20;;;;;;;8.20;2.00;;;9.80;69.60;;;;;;5075373;28;20495;-64
2022/02/05 14:26:57;;;;;;;8.30;1.90;;;10.00;68.90;;;;;;5075222;28;20551;-64
2022/02/05 14:29:24;;;;;;;4.20;1.50;;;10.20;69.50;;;;;;5075200;28;20456;-64
2022/02/05 14:31:55;;;;;;;7.47;1.70;;;10.00;69.80;;;;;;5075001;28;20547;-65
2022/02/05 14:34:34;;;;;;;3.70;1.33;;;9.80;71.00;;;;;;5074997;28;20433;-64
2022/02/05 14:42:31;;;;;;;4.90;1.70;;;8.90;76.90;;;;;;5074754;28;20898;-65
2022/02/05 14:44:58;;;;;;;5.07;1.70;;;8.90;76.00;;;;;;5074621;28;20543;-64
2022/02/05 14:47:25;;;;;;;9.50;1.83;;;8.80;78.60;;;;;;5074570;28;20440;-64
2022/02/05 14:49:51;;;;;;;3.43;1.93;;;8.70;78.10;;;;;;5074633;28;20490;-64
2022/02/05 14:52:18;;;;;;;5.00;1.80;;;8.80;79.80;;;;;;5075079;28;20475;-65
2022/02/05 14:54:45;;;;;;;8.80;1.87;;;8.90;77.70;;;;;;5074604;28;20452;-65
2022/02/05 14:57:13;;;;;;;9.13;2.40;;;9.00;75.80;;;;;;5074521;28;20463;-65
2022/02/05 14:59:42;;;;;;;5.77;1.70;;;9.00;79.30;;;;;;5074368;28;20901;-64
2022/02/05 15:02:10;;;;;;;6.23;2.00;;;9.20;78.80;;;;;;5074354;28;20468;-64
2022/02/05 15:04:37;;;;;;;5.40;1.70;;;9.20;79.10;;;;;;5074194;28;20815;-64